sensor_id;sensor_type;location;lat;lon;timestamp;pressure;altitude;pressure_sealevel;temperature;humidity
55550;BME280;41397;49.972;18.944;2024-03-23T00:54:14;101226.90;;;14.83;57.95
55550;BME280;41397;49.972;18.944;2024-03-23T00:57:18;101237.05;;;14.83;58.19
55550;BME280;41397;49.972;18.944;2024-03-23T01:00:19;101227.92;;;14.82;58.52
55550;BME280;41397;49.972;18.944;2024-03-23T01:03:20;101225.45;;;14.79;58.36
55550;BME280;41397;49.972;18.944;2024-03-23T01:06:22;101222.84;;;14.78;58.19
55550;BME280;41397;49.972;18.944;2024-03-23T01:09:26;101218.35;;;14.77;58.46
55550;BME280;41397;49.972;18.944;2024-03-23T01:12:27;101214.73;;;14.76;59.06
55550;BME280;41397;49.972;18.944;2024-03-23T01:15:28;101219.34;;;14.76;58.44
55550;BME280;41397;49.972;18.944;2024-03-23T01:18:29;101212.11;;;14.75;58.50
55550;BME280;41397;49.972;18.944;2024-03-23T01:21:34;101204.02;;;14.73;58.54
55550;BME280;41397;49.972;18.944;2024-03-23T01:24:36;101204.88;;;14.74;58.40
55550;BME280;41397;49.972;18.944;2024-03-23T01:27:37;101193.87;;;14.74;58.51
55550;BME280;41397;49.972;18.944;2024-03-23T01:30:38;101191.23;;;14.72;58.49
55550;BME280;41397;49.972;18.944;2024-03-23T01:33:42;101190.51;;;14.70;58.25
55550;BME280;41397;49.972;18.944;2024-03-23T01:36:43;101190.38;;;14.72;58.07
55550;BME280;41397;49.972;18.944;2024-03-23T01:39:44;101175.74;;;14.71;57.63
55550;BME280;41397;49.972;18.944;2024-03-23T01:42:56;101172.98;;;14.71;57.90
55550;BME280;41397;49.972;18.944;2024-03-23T01:45:57;101179.65;;;14.69;57.79
55550;BME280;41397;49.972;18.944;2024-03-23T01:48:59;101175.74;;;14.71;57.59
55550;BME280;41397;49.972;18.944;2024-03-23T01:52:01;101166.63;;;14.71;57.54
55550;BME280;41397;49.972;18.944;2024-03-23T01:55:03;101167.48;;;14.71;57.94
55550;BME280;41397;49.972;18.944;2024-03-23T01:58:04;101170.24;;;14.71;58.06
55550;BME280;41397;49.972;18.944;2024-03-23T02:01:06;101163.71;;;14.72;58.04
55550;BME280;41397;49.972;18.944;2024-03-23T02:04:07;101167.33;;;14.73;58.07
55550;BME280;41397;49.972;18.944;2024-03-23T02:07:10;101165.60;;;14.72;57.85
55550;BME280;41397;49.972;18.944;2024-03-23T02:10:11;101170.24;;;14.71;57.66
55550;BME280;41397;49.972;18.944;2024-03-23T02:13:17;101158.20;;;14.72;57.53
55550;BME280;41397;49.972;18.944;2024-03-23T02:16:18;101160.22;;;14.70;57.39
55550;BME280;41397;49.972;18.944;2024-03-23T02:19:19;101161.24;;;14.69;57.62
55550;BME280;41397;49.972;18.944;2024-03-23T02:22:21;101149.50;;;14.67;57.51
55550;BME280;41397;49.972;18.944;2024-03-23T02:25:22;101151.38;;;14.67;57.58
55550;BME280;41397;49.972;18.944;2024-03-23T02:28:23;101154.02;;;14.68;57.72
55550;BME280;41397;49.972;18.944;2024-03-23T02:31:25;101152.13;;;14.69;57.42
55550;BME280;41397;49.972;18.944;2024-03-23T02:34:26;101142.27;;;14.66;57.03
55550;BME280;41397;49.972;18.944;2024-03-23T02:37:27;101139.64;;;14.64;56.90
55550;BME280;41397;49.972;18.944;2024-03-23T02:40:29;101127.64;;;14.65;57.19
55550;BME280;41397;49.972;18.944;2024-03-23T02:43:30;101133.15;;;14.65;57.06
55550;BME280;41397;49.972;18.944;2024-03-23T02:46:31;101125.18;;;14.62;57.15
55550;BME280;41397;49.972;18.944;2024-03-23T02:49:33;101114.00;;;14.64;57.43
55550;BME280;41397;49.972;18.944;2024-03-23T02:52:34;101116.76;;;14.64;57.41
55550;BME280;41397;49.972;18.944;2024-03-23T02:55:35;101119.52;;;14.64;57.17
55550;BME280;41397;49.972;18.944;2024-03-23T02:58:38;101114.00;;;14.64;57.28
55550;BME280;41397;49.972;18.944;2024-03-23T03:01:40;101111.26;;;14.64;57.65
55550;BME280;41397;49.972;18.944;2024-03-23T03:04:41;101107.64;;;14.63;57.63
55550;BME280;41397;49.972;18.944;2024-03-23T03:07:42;101094.74;;;14.64;57.56
55550;BME280;41397;49.972;18.944;2024-03-23T03:10:46;101094.01;;;14.62;57.69
55550;BME280;41397;49.972;18.944;2024-03-23T03:13:48;101089.24;;;14.64;57.81
55550;BME280;41397;49.972;18.944;2024-03-23T03:16:50;101080.24;;;14.62;57.68
55550;BME280;41397;49.972;18.944;2024-03-23T03:19:51;101072.16;;;14.60;57.67
55550;BME280;41397;49.972;18.944;2024-03-23T03:22:56;101066.65;;;14.60;58.18
55550;BME280;41397;49.972;18.944;2024-03-23T03:25:57;101058.23;;;14.62;58.79
55550;BME280;41397;49.972;18.944;2024-03-23T03:28:59;101064.62;;;14.62;58.94
55550;BME280;41397;49.972;18.944;2024-03-23T03:32:00;101062.01;;;14.61;58.59
55550;BME280;41397;49.972;18.944;2024-03-23T03:35:02;101071.28;;;14.60;58.34
55550;BME280;41397;49.972;18.944;2024-03-23T03:38:04;101075.64;;;14.62;58.47
55550;BME280;41397;49.972;18.944;2024-03-23T03:41:05;101067.38;;;14.62;58.45
55550;BME280;41397;49.972;18.944;2024-03-23T03:44:10;101065.62;;;14.61;58.79
55550;BME280;41397;49.972;18.944;2024-03-23T03:47:11;101061.27;;;14.59;59.61
55550;BME280;41397;49.972;18.944;2024-03-23T03:50:12;101060.41;;;14.58;59.23
55550;BME280;41397;49.972;18.944;2024-03-23T03:53:14;101049.41;;;14.58;59.53
55550;BME280;41397;49.972;18.944;2024-03-23T03:56:15;101054.03;;;14.58;59.83
55550;BME280;41397;49.972;18.944;2024-03-23T03:59:19;101054.16;;;14.56;59.83
55550;BME280;41397;49.972;18.944;2024-03-23T04:02:21;101044.07;;;14.57;60.12
55550;BME280;41397;49.972;18.944;2024-03-23T04:05:23;101045.21;;;14.54;60.94
55550;BME280;41397;49.972;18.944;2024-03-23T04:08:24;101047.97;;;14.54;61.48
55550;BME280;41397;49.972;18.944;2024-03-23T04:11:27;101046.21;;;14.53;61.70
55550;BME280;41397;49.972;18.944;2024-03-23T04:14:28;101033.47;;;14.52;62.01
55550;BME280;41397;49.972;18.944;2024-03-23T04:17:30;101029.96;;;14.50;61.66
55550;BME280;41397;49.972;18.944;2024-03-23T04:20:34;101027.20;;;14.50;61.21
55550;BME280;41397;49.972;18.944;2024-03-23T04:23:36;101032.87;;;14.49;61.21
55550;BME280;41397;49.972;18.944;2024-03-23T04:26:43;101022.56;;;14.51;61.94
55550;BME280;41397;49.972;18.944;2024-03-23T04:29:50;101023.72;;;14.48;62.29
55550;BME280;41397;49.972;18.944;2024-03-23T04:32:51;101017.52;;;14.46;62.40
55550;BME280;41397;49.972;18.944;2024-03-23T04:35:53;101008.37;;;14.46;62.74
55550;BME280;41397;49.972;18.944;2024-03-23T04:38:54;100996.66;;;14.43;62.98
55550;BME280;41397;49.972;18.944;2024-03-23T04:41:55;100992.89;;;14.44;63.21
55550;BME280;41397;49.972;18.944;2024-03-23T04:44:56;100982.91;;;14.43;63.66
55550;BME280;41397;49.972;18.944;2024-03-23T04:47:58;100975.64;;;14.42;64.38
55550;BME280;41397;49.972;18.944;2024-03-23T04:50:59;100983.91;;;14.42;64.36
55550;BME280;41397;49.972;18.944;2024-03-23T04:54:00;100986.81;;;14.41;65.11
55550;BME280;41397;49.972;18.944;2024-03-23T04:57:01;100989.41;;;14.42;65.73
55550;BME280;41397;49.972;18.944;2024-03-23T05:00:03;100975.21;;;14.37;66.22
55550;BME280;41397;49.972;18.944;2024-03-23T05:03:17;100984.79;;;14.33;66.67
55550;BME280;41397;49.972;18.944;2024-03-23T05:06:21;100988.41;;;14.34;67.19
55550;BME280;41397;49.972;18.944;2024-03-23T05:09:23;100985.81;;;14.32;66.86
55550;BME280;41397;49.972;18.944;2024-03-23T05:12:24;100989.26;;;14.34;66.15
55550;BME280;41397;49.972;18.944;2024-03-23T05:15:25;100990.30;;;14.33;66.82
55550;BME280;41397;49.972;18.944;2024-03-23T05:18:26;100986.38;;;14.36;66.75
55550;BME280;41397;49.972;18.944;2024-03-23T05:21:29;100985.52;;;14.35;67.15
55550;BME280;41397;49.972;18.944;2024-03-23T05:24:30;100986.51;;;14.34;67.05
55550;BME280;41397;49.972;18.944;2024-03-23T05:27:34;100974.93;;;14.31;67.86
55550;BME280;41397;49.972;18.944;2024-03-23T05:30:35;100966.81;;;14.29;67.92
55550;BME280;41397;49.972;18.944;2024-03-23T05:33:36;100967.70;;;14.30;68.87
55550;BME280;41397;49.972;18.944;2024-03-23T05:36:42;100966.98;;;14.28;68.69
55550;BME280;41397;49.972;18.944;2024-03-23T05:39:43;100957.99;;;14.26;69.08
55550;BME280;41397;49.972;18.944;2024-03-23T05:42:45;100962.47;;;14.27;68.60
55550;BME280;41397;49.972;18.944;2024-03-23T05:45:47;100952.49;;;14.26;68.86
55550;BME280;41397;49.972;18.944;2024-03-23T05:48:52;100956.98;;;14.27;69.33
55550;BME280;41397;49.972;18.944;2024-03-23T05:51:53;100955.98;;;14.28;68.67
55550;BME280;41397;49.972;18.944;2024-03-23T05:54:56;100957.58;;;14.30;69.59
55550;BME280;41397;49.972;18.944;2024-03-23T05:57:57;100953.80;;;14.31;69.59
55550;BME280;41397;49.972;18.944;2024-03-23T06:01:00;100961.06;;;14.32;69.73
55550;BME280;41397;49.972;18.944;2024-03-23T06:04:05;100966.55;;;14.32;69.72
55550;BME280;41397;49.972;18.944;2024-03-23T06:07:07;100966.39;;;14.34;69.66
55550;BME280;41397;49.972;18.944;2024-03-23T06:10:14;100962.48;;;14.36;70.32
55550;BME280;41397;49.972;18.944;2024-03-23T06:13:16;100959.60;;;14.38;70.57
55550;BME280;41397;49.972;18.944;2024-03-23T06:16:18;100942.20;;;14.37;70.13
55550;BME280;41397;49.972;18.944;2024-03-23T06:19:28;100940.34;;;14.38;70.39
55550;BME280;41397;49.972;18.944;2024-03-23T06:22:30;100935.23;;;14.43;69.83
55550;BME280;41397;49.972;18.944;2024-03-23T06:25:31;100927.71;;;14.45;69.31
55550;BME280;41397;49.972;18.944;2024-03-23T06:28:33;100924.66;;;14.48;69.28
55550;BME280;41397;49.972;18.944;2024-03-23T06:31:36;100930.77;;;14.52;69.46
55550;BME280;41397;49.972;18.944;2024-03-23T06:34:38;100925.85;;;14.55;69.44
55550;BME280;41397;49.972;18.944;2024-03-23T06:37:39;100928.47;;;14.57;69.32
55550;BME280;41397;49.972;18.944;2024-03-23T06:40:41;100928.30;;;14.58;68.08
55550;BME280;41397;49.972;18.944;2024-03-23T06:43:44;100926.41;;;14.59;67.37
55550;BME280;41397;49.972;18.944;2024-03-23T06:46:46;100924.08;;;14.64;66.90
55550;BME280;41397;49.972;18.944;2024-03-23T06:49:48;100924.65;;;14.68;66.83
55550;BME280;41397;49.972;18.944;2024-03-23T06:52:49;100898.44;;;14.73;66.72
55550;BME280;41397;49.972;18.944;2024-03-23T06:55:54;100902.30;;;14.80;67.12
55550;BME280;41397;49.972;18.944;2024-03-23T06:58:56;100895.19;;;14.87;67.30
55550;BME280;41397;49.972;18.944;2024-03-23T07:01:58;100894.88;;;14.91;67.20
55550;BME280;41397;49.972;18.944;2024-03-23T07:04:59;100883.15;;;14.88;66.41
55550;BME280;41397;49.972;18.944;2024-03-23T07:08:01;100887.93;;;14.86;66.24
55550;BME280;41397;49.972;18.944;2024-03-23T07:11:03;100874.88;;;14.88;65.88
55550;BME280;41397;49.972;18.944;2024-03-23T07:14:05;100878.05;;;14.94;66.07
55550;BME280;41397;49.972;18.944;2024-03-23T07:17:06;100878.68;;;15.15;66.24
55550;BME280;41397;49.972;18.944;2024-03-23T07:20:10;100876.72;;;15.53;66.19
55550;BME280;41397;49.972;18.944;2024-03-23T07:23:12;100886.36;;;16.03;65.79
55550;BME280;41397;49.972;18.944;2024-03-23T07:26:13;100891.56;;;16.50;64.42
55550;BME280;41397;49.972;18.944;2024-03-23T07:29:14;100883.37;;;16.84;63.71
55550;BME280;41397;49.972;18.944;2024-03-23T07:32:17;100876.10;;;17.17;62.42
55550;BME280;41397;49.972;18.944;2024-03-23T07:35:18;100878.27;;;17.48;61.50
55550;BME280;41397;49.972;18.944;2024-03-23T07:38:19;100870.03;;;17.72;60.18
55550;BME280;41397;49.972;18.944;2024-03-23T07:41:21;100870.45;;;18.10;59.86
55550;BME280;41397;49.972;18.944;2024-03-23T07:44:25;100854.34;;;18.30;58.01
55550;BME280;41397;49.972;18.944;2024-03-23T07:47:26;100858.47;;;18.59;57.87
55550;BME280;41397;49.972;18.944;2024-03-23T07:50:27;100857.74;;;18.81;57.26
55550;BME280;41397;49.972;18.944;2024-03-23T07:53:29;100851.42;;;19.04;54.94
55550;BME280;41397;49.972;18.944;2024-03-23T07:56:33;100855.51;;;19.24;54.34
55550;BME280;41397;49.972;18.944;2024-03-23T07:59:34;100843.22;;;19.50;51.69
55550;BME280;41397;49.972;18.944;2024-03-23T08:02:36;100852.42;;;19.82;50.52
55550;BME280;41397;49.972;18.944;2024-03-23T08:05:37;100845.45;;;20.09;49.14
55550;BME280;41397;49.972;18.944;2024-03-23T08:08:44;100837.28;;;20.30;47.85
55550;BME280;41397;49.972;18.944;2024-03-23T08:11:45;100832.30;;;20.40;47.41
55550;BME280;41397;49.972;18.944;2024-03-23T08:14:47;100806.50;;;20.55;48.45
55550;BME280;41397;49.972;18.944;2024-03-23T08:17:49;100796.06;;;20.72;47.68
55550;BME280;41397;49.972;18.944;2024-03-23T08:24:07;100795.84;;;21.03;48.34
55550;BME280;41397;49.972;18.944;2024-03-23T08:27:08;100785.73;;;21.17;46.42
55550;BME280;41397;49.972;18.944;2024-03-23T08:30:13;100792.64;;;21.21;46.60
55550;BME280;41397;49.972;18.944;2024-03-23T08:33:14;100775.44;;;21.32;46.35
55550;BME280;41397;49.972;18.944;2024-03-23T08:36:15;100765.80;;;21.49;45.03
55550;BME280;41397;49.972;18.944;2024-03-23T08:39:17;100762.32;;;21.62;45.29
55550;BME280;41397;49.972;18.944;2024-03-23T08:42:19;100755.48;;;21.86;44.51
55550;BME280;41397;49.972;18.944;2024-03-23T08:45:20;100748.29;;;21.99;45.09
55550;BME280;41397;49.972;18.944;2024-03-23T08:48:22;100745.36;;;22.07;44.87
55550;BME280;41397;49.972;18.944;2024-03-23T08:51:24;100740.20;;;22.04;43.11
55550;BME280;41397;49.972;18.944;2024-03-23T08:54:25;100735.45;;;21.98;41.93
55550;BME280;41397;49.972;18.944;2024-03-23T08:57:29;100730.69;;;21.91;42.33
55550;BME280;41397;49.972;18.944;2024-03-23T09:00:31;100725.67;;;21.80;42.31
55550;BME280;41397;49.972;18.944;2024-03-23T09:03:32;100716.80;;;21.70;41.27
55550;BME280;41397;49.972;18.944;2024-03-23T09:06:34;100701.91;;;21.56;40.10
55550;BME280;41397;49.972;18.944;2024-03-23T09:09:38;100701.58;;;21.44;38.93
55550;BME280;41397;49.972;18.944;2024-03-23T09:12:40;100688.14;;;21.33;39.96
55550;BME280;41397;49.972;18.944;2024-03-23T09:15:50;100673.11;;;21.27;38.98
55550;BME280;41397;49.972;18.944;2024-03-23T09:18:52;100672.00;;;21.22;39.30
55550;BME280;41397;49.972;18.944;2024-03-23T09:21:53;100655.25;;;21.15;40.07
55550;BME280;41397;49.972;18.944;2024-03-23T09:24:55;100656.68;;;21.11;40.29
55550;BME280;41397;49.972;18.944;2024-03-23T09:27:58;100652.59;;;21.07;41.03
55550;BME280;41397;49.972;18.944;2024-03-23T09:31:03;100637.97;;;20.98;39.63
55550;BME280;41397;49.972;18.944;2024-03-23T09:34:04;100629.08;;;20.88;38.85
55550;BME280;41397;49.972;18.944;2024-03-23T09:37:06;100635.22;;;20.83;40.29
55550;BME280;41397;49.972;18.944;2024-03-23T09:40:11;100634.55;;;20.81;40.85
55550;BME280;41397;49.972;18.944;2024-03-23T09:43:12;100630.06;;;20.80;40.07
55550;BME280;41397;49.972;18.944;2024-03-23T09:46:14;100630.52;;;20.84;40.71
55550;BME280;41397;49.972;18.944;2024-03-23T09:49:15;100629.48;;;20.85;39.78
55550;BME280;41397;49.972;18.944;2024-03-23T09:52:18;100610.30;;;20.90;40.28
55550;BME280;41397;49.972;18.944;2024-03-23T09:55:19;100595.33;;;20.91;39.58
55550;BME280;41397;49.972;18.944;2024-03-23T09:58:23;100584.26;;;20.98;40.33
55550;BME280;41397;49.972;18.944;2024-03-23T10:01:24;100568.66;;;20.97;39.65
55550;BME280;41397;49.972;18.944;2024-03-23T10:07:39;100538.78;;;21.05;39.24
55550;BME280;41397;49.972;18.944;2024-03-23T10:10:41;100532.19;;;21.06;38.26
55550;BME280;41397;49.972;18.944;2024-03-23T10:13:43;100542.09;;;21.16;39.62
55550;BME280;41397;49.972;18.944;2024-03-23T10:16:46;100540.24;;;21.23;39.00
55550;BME280;41397;49.972;18.944;2024-03-23T10:19:49;100535.38;;;21.32;39.32
55550;BME280;41397;49.972;18.944;2024-03-23T10:22:51;100533.15;;;21.42;39.76
55550;BME280;41397;49.972;18.944;2024-03-23T10:25:53;100527.80;;;21.47;38.09
55550;BME280;41397;49.972;18.944;2024-03-23T10:28:58;100526.34;;;21.51;39.37
55550;BME280;41397;49.972;18.944;2024-03-23T10:32:11;100516.32;;;21.57;39.23
55550;BME280;41397;49.972;18.944;2024-03-23T10:35:19;100512.02;;;21.54;38.48
55550;BME280;41397;49.972;18.944;2024-03-23T10:38:24;100500.95;;;21.61;38.55
55550;BME280;41397;49.972;18.944;2024-03-23T10:41:32;100500.32;;;21.65;38.72
55550;BME280;41397;49.972;18.944;2024-03-23T10:44:35;100489.43;;;21.70;39.13
55550;BME280;41397;49.972;18.944;2024-03-23T10:47:37;100505.71;;;21.73;39.97
55550;BME280;41397;49.972;18.944;2024-03-23T10:50:38;100492.04;;;21.79;39.79
55550;BME280;41397;49.972;18.944;2024-03-23T10:53:40;100486.91;;;21.82;40.55
55550;BME280;41397;49.972;18.944;2024-03-23T10:56:42;100477.93;;;21.80;39.76
55550;BME280;41397;49.972;18.944;2024-03-23T10:59:44;100461.85;;;21.82;39.11
55550;BME280;41397;49.972;18.944;2024-03-23T11:02:47;100464.03;;;21.87;39.38
55550;BME280;41397;49.972;18.944;2024-03-23T11:05:48;100458.69;;;21.85;39.69
55550;BME280;41397;49.972;18.944;2024-03-23T11:08:50;100452.05;;;21.86;39.75
55550;BME280;41397;49.972;18.944;2024-03-23T11:11:51;100442.61;;;21.87;39.70
55550;BME280;41397;49.972;18.944;2024-03-23T11:18:07;100395.71;;;21.84;39.76
55550;BME280;41397;49.972;18.944;2024-03-23T11:22:05;100375.80;;;21.81;40.67
55550;BME280;41397;49.972;18.944;2024-03-23T11:24:25;100387.98;;;21.80;40.14
55550;BME280;41397;49.972;18.944;2024-03-23T11:27:26;100369.38;;;21.80;39.29
55550;BME280;41397;49.972;18.944;2024-03-23T11:30:28;100362.30;;;21.78;39.78
55550;BME280;41397;49.972;18.944;2024-03-23T11:33:30;100359.30;;;21.79;38.84
55550;BME280;41397;49.972;18.944;2024-03-23T11:36:32;100346.23;;;21.80;39.74
55550;BME280;41397;49.972;18.944;2024-03-23T11:39:33;100338.11;;;21.85;39.77
55550;BME280;41397;49.972;18.944;2024-03-23T11:42:35;100319.70;;;21.84;39.74
55550;BME280;41397;49.972;18.944;2024-03-23T11:45:38;100320.13;;;21.81;40.17
55550;BME280;41397;49.972;18.944;2024-03-23T11:48:49;100311.35;;;21.84;40.06
55550;BME280;41397;49.972;18.944;2024-03-23T11:51:52;100309.65;;;21.83;40.51
55550;BME280;41397;49.972;18.944;2024-03-23T11:55:04;100297.00;;;21.87;40.48
55550;BME280;41397;49.972;18.944;2024-03-23T11:58:06;100294.02;;;21.88;40.89
55550;BME280;41397;49.972;18.944;2024-03-23T12:01:10;100272.80;;;21.87;38.82
55550;BME280;41397;49.972;18.944;2024-03-23T12:04:11;100282.24;;;21.86;37.11
55550;BME280;41397;49.972;18.944;2024-03-23T12:07:19;100269.17;;;21.87;36.29
55550;BME280;41397;49.972;18.944;2024-03-23T12:10:22;100259.31;;;21.84;35.22
55550;BME280;41397;49.972;18.944;2024-03-23T12:13:23;100251.19;;;21.89;36.04
55550;BME280;41397;49.972;18.944;2024-03-23T12:16:24;100238.77;;;21.92;36.23
55550;BME280;41397;49.972;18.944;2024-03-23T12:19:28;100233.21;;;21.92;36.30
55550;BME280;41397;49.972;18.944;2024-03-23T12:22:30;100224.85;;;21.92;35.82
55550;BME280;41397;49.972;18.944;2024-03-23T12:25:31;100218.20;;;21.93;36.65
55550;BME280;41397;49.972;18.944;2024-03-23T12:28:33;100203.43;;;21.92;36.19
55550;BME280;41397;49.972;18.944;2024-03-23T12:31:34;100199.37;;;21.95;37.03
55550;BME280;41397;49.972;18.944;2024-03-23T12:34:35;100200.22;;;21.95;36.75
55550;BME280;41397;49.972;18.944;2024-03-23T12:37:36;100195.93;;;21.93;36.37
55550;BME280;41397;49.972;18.944;2024-03-23T12:40:38;100185.25;;;21.97;37.37
55550;BME280;41397;49.972;18.944;2024-03-23T12:45:37;100182.02;;;22.00;38.14
55550;BME280;41397;49.972;18.944;2024-03-23T12:48:38;100174.73;;;21.99;38.58
55550;BME280;41397;49.972;18.944;2024-03-23T12:51:54;100169.16;;;21.99;38.81
55550;BME280;41397;49.972;18.944;2024-03-23T12:54:51;100164.26;;;21.94;38.42
55550;BME280;41397;49.972;18.944;2024-03-23T12:57:53;100154.40;;;21.85;38.63
55550;BME280;41397;49.972;18.944;2024-03-23T13:00:58;100153.76;;;21.76;39.39
55550;BME280;41397;49.972;18.944;2024-03-23T13:03:59;100159.55;;;21.68;40.06
55550;BME280;41397;49.972;18.944;2024-03-23T13:07:03;100155.27;;;21.59;39.77
55550;BME280;41397;49.972;18.944;2024-03-23T13:10:11;100160.20;;;21.50;39.69
55550;BME280;41397;49.972;18.944;2024-03-23T13:13:12;100151.16;;;21.41;40.56
55550;BME280;41397;49.972;18.944;2024-03-23T13:16:14;100157.77;;;21.34;40.44
55550;BME280;41397;49.972;18.944;2024-03-23T13:19:15;100150.25;;;21.27;39.65
55550;BME280;41397;49.972;18.944;2024-03-23T13:22:19;100150.02;;;21.22;39.94
55550;BME280;41397;49.972;18.944;2024-03-23T13:25:21;100144.48;;;21.16;39.43
55550;BME280;41397;49.972;18.944;2024-03-23T13:28:23;100148.72;;;21.05;39.50
55550;BME280;41397;49.972;18.944;2024-03-23T13:31:24;100150.83;;;20.96;39.00
55550;BME280;41397;49.972;18.944;2024-03-23T13:34:27;100152.11;;;20.87;39.08
55550;BME280;41397;49.972;18.944;2024-03-23T13:37:30;100152.48;;;20.77;38.42
55550;BME280;41397;49.972;18.944;2024-03-23T13:40:32;100140.04;;;20.67;38.55
55550;BME280;41397;49.972;18.944;2024-03-23T13:43:33;100175.07;;;20.61;38.58
55550;BME280;41397;49.972;18.944;2024-03-23T13:46:35;100208.09;;;20.49;39.24
55550;BME280;41397;49.972;18.944;2024-03-23T13:49:36;100318.45;;;20.12;46.49
55550;BME280;41397;49.972;18.944;2024-03-23T13:52:38;100347.16;;;19.47;56.52
55550;BME280;41397;49.972;18.944;2024-03-23T13:55:47;100369.37;;;18.88;60.61
55550;BME280;41397;49.972;18.944;2024-03-23T13:58:49;100392.73;;;18.70;60.96
55550;BME280;41397;49.972;18.944;2024-03-23T14:01:51;100418.27;;;18.43;61.17
55550;BME280;41397;49.972;18.944;2024-03-23T14:04:52;100450.96;;;17.93;62.73
55550;BME280;41397;49.972;18.944;2024-03-23T14:07:54;100450.16;;;17.76;62.35
55550;BME280;41397;49.972;18.944;2024-03-23T14:10:55;100474.46;;;17.49;63.99
55550;BME280;41397;49.972;18.944;2024-03-23T14:13:58;100475.34;;;17.42;63.32
55550;BME280;41397;49.972;18.944;2024-03-23T14:16:59;100481.73;;;17.42;62.77
55550;BME280;41397;49.972;18.944;2024-03-23T14:20:00;100477.44;;;17.31;64.74
55550;BME280;41397;49.972;18.944;2024-03-23T14:23:02;100465.58;;;17.15;64.97
55550;BME280;41397;49.972;18.944;2024-03-23T14:26:03;100476.30;;;17.09;64.92
55550;BME280;41397;49.972;18.944;2024-03-23T14:29:06;100481.13;;;16.99;64.74
55550;BME280;41397;49.972;18.944;2024-03-23T14:32:07;100473.74;;;16.92;66.01
55550;BME280;41397;49.972;18.944;2024-03-23T14:35:09;100478.23;;;16.84;65.77
55550;BME280;41397;49.972;18.944;2024-03-23T14:38:11;100471.84;;;16.92;65.36
55550;BME280;41397;49.972;18.944;2024-03-23T14:41:12;100455.07;;;16.94;65.03
55550;BME280;41397;49.972;18.944;2024-03-23T14:44:14;100447.67;;;16.94;64.98
55550;BME280;41397;49.972;18.944;2024-03-23T14:47:15;100439.71;;;16.91;64.56
55550;BME280;41397;49.972;18.944;2024-03-23T14:50:18;100431.43;;;16.91;63.93
55550;BME280;41397;49.972;18.944;2024-03-23T14:53:19;100459.59;;;16.86;63.51
55550;BME280;41397;49.972;18.944;2024-03-23T14:56:20;100443.03;;;16.78;63.48
55550;BME280;41397;49.972;18.944;2024-03-23T14:59:22;100503.95;;;16.77;63.47
55550;BME280;41397;49.972;18.944;2024-03-23T15:02:24;100497.88;;;16.73;63.79
55550;BME280;41397;49.972;18.944;2024-03-23T15:05:29;100494.07;;;16.74;63.45
55550;BME280;41397;49.972;18.944;2024-03-23T15:08:30;100485.64;;;16.76;63.26
55550;BME280;41397;49.972;18.944;2024-03-23T15:11:31;100480.62;;;16.71;63.49
55550;BME280;41397;49.972;18.944;2024-03-23T15:14:33;100485.48;;;16.77;62.96
55550;BME280;41397;49.972;18.944;2024-03-23T15:17:35;100474.42;;;16.77;62.51
55550;BME280;41397;49.972;18.944;2024-03-23T15:23:55;100475.12;;;16.79;62.35
55550;BME280;41397;49.972;18.944;2024-03-23T15:26:56;100472.84;;;16.75;62.70
55550;BME280;41397;49.972;18.944;2024-03-23T15:29:58;100486.36;;;16.78;62.69
55550;BME280;41397;49.972;18.944;2024-03-23T15:32:59;100477.18;;;16.77;62.29
55550;BME280;41397;49.972;18.944;2024-03-23T15:36:04;100482.71;;;16.77;62.13
55550;BME280;41397;49.972;18.944;2024-03-23T15:39:06;100484.92;;;16.74;62.24
55550;BME280;41397;49.972;18.944;2024-03-23T15:42:07;100484.77;;;16.75;62.27
55550;BME280;41397;49.972;18.944;2024-03-23T15:45:09;100488.74;;;16.73;62.21
55550;BME280;41397;49.972;18.944;2024-03-23T15:48:10;100501.49;;;16.74;61.64
55550;BME280;41397;49.972;18.944;2024-03-23T15:51:12;100498.39;;;16.69;61.70
55550;BME280;41397;49.972;18.944;2024-03-23T15:54:13;100524.29;;;16.68;61.22
55550;BME280;41397;49.972;18.944;2024-03-23T15:57:14;100534.47;;;16.67;60.74
55550;BME280;41397;49.972;18.944;2024-03-23T16:00:17;100553.11;;;16.65;60.44
55550;BME280;41397;49.972;18.944;2024-03-23T16:03:20;100551.54;;;16.62;60.25
55550;BME280;41397;49.972;18.944;2024-03-23T16:06:21;100544.13;;;16.63;59.55
55550;BME280;41397;49.972;18.944;2024-03-23T16:09:22;100532.56;;;16.59;59.25
55550;BME280;41397;49.972;18.944;2024-03-23T16:12:23;100529.60;;;16.53;59.52
55550;BME280;41397;49.972;18.944;2024-03-23T16:15:36;100530.64;;;16.43;60.11
55550;BME280;41397;49.972;18.944;2024-03-23T16:18:38;100532.54;;;16.43;60.59
55550;BME280;41397;49.972;18.944;2024-03-23T16:21:46;100529.42;;;16.38;60.94
55550;BME280;41397;49.972;18.944;2024-03-23T16:24:47;100529.76;;;16.35;60.86
55550;BME280;41397;49.972;18.944;2024-03-23T16:27:48;100520.08;;;16.31;61.77
55550;BME280;41397;49.972;18.944;2024-03-23T16:30:54;100542.50;;;16.28;61.38
55550;BME280;41397;49.972;18.944;2024-03-23T16:33:56;100555.45;;;16.27;61.64
55550;BME280;41397;49.972;18.944;2024-03-23T16:36:59;100552.83;;;16.26;61.99
55550;BME280;41397;49.972;18.944;2024-03-23T16:40:00;100566.97;;;16.23;62.40
55550;BME280;41397;49.972;18.944;2024-03-23T16:43:02;100590.08;;;16.22;62.65
55550;BME280;41397;49.972;18.944;2024-03-23T16:46:06;100591.28;;;16.19;62.94
55550;BME280;41397;49.972;18.944;2024-03-23T16:49:11;100597.14;;;16.16;63.16